sensor_id;sensor_type;location;lat;lon;timestamp;P1;durP1;ratioP1;P2;durP2;ratioP2
5587;SDS011;2816;49.778;9.986;2023-05-14T00:01:53;4.80;;;4.40;;
5587;SDS011;2816;49.778;9.986;2023-05-14T00:04:20;5.63;;;4.70;;
5587;SDS011;2816;49.778;9.986;2023-05-14T00:06:48;4.93;;;4.23;;
5587;SDS011;2816;49.778;9.986;2023-05-14T00:09:15;5.30;;;4.60;;
5587;SDS011;2816;49.778;9.986;2023-05-14T00:11:42;5.47;;;4.43;;
5587;SDS011;2816;49.778;9.986;2023-05-14T00:14:09;5.37;;;4.73;;
5587;SDS011;2816;49.778;9.986;2023-05-14T00:16:36;5.60;;;5.10;;
5587;SDS011;2816;49.778;9.986;2023-05-14T00:19:04;5.73;;;4.90;;
5587;SDS011;2816;49.778;9.986;2023-05-14T00:21:31;5.43;;;4.87;;
5587;SDS011;2816;49.778;9.986;2023-05-14T00:23:58;7.27;;;4.90;;
5587;SDS011;2816;49.778;9.986;2023-05-14T00:26:25;5.70;;;4.90;;
5587;SDS011;2816;49.778;9.986;2023-05-14T00:28:52;6.03;;;4.90;;
5587;SDS011;2816;49.778;9.986;2023-05-14T00:31:19;5.57;;;4.90;;
5587;SDS011;2816;49.778;9.986;2023-05-14T00:33:46;10.17;;;5.40;;
5587;SDS011;2816;49.778;9.986;2023-05-14T00:36:14;6.60;;;5.60;;
5587;SDS011;2816;49.778;9.986;2023-05-14T00:38:41;5.83;;;5.17;;
5587;SDS011;2816;49.778;9.986;2023-05-14T00:41:08;5.27;;;4.77;;
5587;SDS011;2816;49.778;9.986;2023-05-14T00:43:35;6.50;;;4.60;;
5587;SDS011;2816;49.778;9.986;2023-05-14T00:46:02;6.00;;;5.40;;
5587;SDS011;2816;49.778;9.986;2023-05-14T00:48:29;7.13;;;6.03;;
5587;SDS011;2816;49.778;9.986;2023-05-14T00:50:56;5.97;;;5.13;;
5587;SDS011;2816;49.778;9.986;2023-05-14T00:53:24;6.93;;;5.47;;
5587;SDS011;2816;49.778;9.986;2023-05-14T00:55:52;6.73;;;6.03;;
5587;SDS011;2816;49.778;9.986;2023-05-14T00:58:19;8.73;;;5.80;;
5587;SDS011;2816;49.778;9.986;2023-05-14T01:00:47;9.07;;;5.90;;
5587;SDS011;2816;49.778;9.986;2023-05-14T01:03:14;7.00;;;6.20;;
5587;SDS011;2816;49.778;9.986;2023-05-14T01:05:42;6.33;;;5.73;;
5587;SDS011;2816;49.778;9.986;2023-05-14T01:08:17;7.70;;;5.47;;
5587;SDS011;2816;49.778;9.986;2023-05-14T01:10:55;9.00;;;6.23;;
5587;SDS011;2816;49.778;9.986;2023-05-14T01:13:29;9.40;;;5.63;;
5587;SDS011;2816;49.778;9.986;2023-05-14T01:16:04;6.50;;;5.73;;
5587;SDS011;2816;49.778;9.986;2023-05-14T01:18:37;7.00;;;5.60;;
5587;SDS011;2816;49.778;9.986;2023-05-14T01:21:17;7.27;;;6.03;;
5587;SDS011;2816;49.778;9.986;2023-05-14T01:23:47;11.10;;;5.10;;
5587;SDS011;2816;49.778;9.986;2023-05-14T01:26:14;8.07;;;5.50;;
5587;SDS011;2816;49.778;9.986;2023-05-14T01:28:41;6.60;;;4.90;;
5587;SDS011;2816;49.778;9.986;2023-05-14T01:31:11;5.47;;;4.97;;
5587;SDS011;2816;49.778;9.986;2023-05-14T01:33:43;6.30;;;5.23;;
5587;SDS011;2816;49.778;9.986;2023-05-14T01:36:14;5.80;;;5.20;;
5587;SDS011;2816;49.778;9.986;2023-05-14T01:38:41;6.57;;;5.97;;
5587;SDS011;2816;49.778;9.986;2023-05-14T01:41:12;6.63;;;5.47;;
5587;SDS011;2816;49.778;9.986;2023-05-14T01:43:40;6.30;;;5.27;;
5587;SDS011;2816;49.778;9.986;2023-05-14T01:46:07;10.33;;;5.80;;
5587;SDS011;2816;49.778;9.986;2023-05-14T01:48:34;5.80;;;5.30;;
5587;SDS011;2816;49.778;9.986;2023-05-14T01:51:02;6.60;;;5.70;;
5587;SDS011;2816;49.778;9.986;2023-05-14T01:53:29;6.87;;;6.17;;
5587;SDS011;2816;49.778;9.986;2023-05-14T01:55:58;6.50;;;5.80;;
5587;SDS011;2816;49.778;9.986;2023-05-14T01:58:27;7.07;;;6.37;;
5587;SDS011;2816;49.778;9.986;2023-05-14T02:00:54;7.93;;;5.80;;
5587;SDS011;2816;49.778;9.986;2023-05-14T02:03:20;7.40;;;5.90;;
5587;SDS011;2816;49.778;9.986;2023-05-14T02:05:47;6.40;;;5.50;;
5587;SDS011;2816;49.778;9.986;2023-05-14T02:08:15;7.20;;;5.73;;
5587;SDS011;2816;49.778;9.986;2023-05-14T02:10:41;10.00;;;5.30;;
5587;SDS011;2816;49.778;9.986;2023-05-14T02:13:08;12.40;;;5.50;;
5587;SDS011;2816;49.778;9.986;2023-05-14T02:15:37;6.53;;;5.77;;
5587;SDS011;2816;49.778;9.986;2023-05-14T02:18:04;8.13;;;6.20;;
5587;SDS011;2816;49.778;9.986;2023-05-14T02:20:31;6.40;;;5.80;;
5587;SDS011;2816;49.778;9.986;2023-05-14T02:22:58;9.83;;;5.70;;
5587;SDS011;2816;49.778;9.986;2023-05-14T02:25:25;6.77;;;6.07;;
5587;SDS011;2816;49.778;9.986;2023-05-14T02:27:52;7.03;;;5.00;;
5587;SDS011;2816;49.778;9.986;2023-05-14T02:30:19;8.03;;;4.83;;
5587;SDS011;2816;49.778;9.986;2023-05-14T02:32:48;6.90;;;5.30;;
5587;SDS011;2816;49.778;9.986;2023-05-14T02:35:15;6.47;;;5.87;;
5587;SDS011;2816;49.778;9.986;2023-05-14T02:37:42;6.07;;;5.50;;
5587;SDS011;2816;49.778;9.986;2023-05-14T02:40:09;6.20;;;5.60;;
5587;SDS011;2816;49.778;9.986;2023-05-14T02:42:36;7.03;;;5.40;;
5587;SDS011;2816;49.778;9.986;2023-05-14T02:45:04;7.03;;;5.80;;
5587;SDS011;2816;49.778;9.986;2023-05-14T02:47:32;6.93;;;6.20;;
5587;SDS011;2816;49.778;9.986;2023-05-14T02:50:01;8.40;;;5.87;;
5587;SDS011;2816;49.778;9.986;2023-05-14T02:52:28;7.20;;;5.27;;
5587;SDS011;2816;49.778;9.986;2023-05-14T02:54:55;7.83;;;6.07;;
5587;SDS011;2816;49.778;9.986;2023-05-14T02:57:22;5.87;;;5.33;;
5587;SDS011;2816;49.778;9.986;2023-05-14T02:59:49;7.93;;;5.50;;
5587;SDS011;2816;49.778;9.986;2023-05-14T03:02:16;8.80;;;5.73;;
5587;SDS011;2816;49.778;9.986;2023-05-14T03:04:43;6.00;;;5.40;;
5587;SDS011;2816;49.778;9.986;2023-05-14T03:07:12;6.37;;;5.60;;
5587;SDS011;2816;49.778;9.986;2023-05-14T03:09:39;5.70;;;5.20;;
5587;SDS011;2816;49.778;9.986;2023-05-14T03:12:06;6.77;;;6.07;;
5587;SDS011;2816;49.778;9.986;2023-05-14T03:14:33;6.80;;;5.87;;
5587;SDS011;2816;49.778;9.986;2023-05-14T03:17:00;8.60;;;6.43;;
5587;SDS011;2816;49.778;9.986;2023-05-14T03:19:27;6.30;;;5.70;;
5587;SDS011;2816;49.778;9.986;2023-05-14T03:21:54;6.33;;;5.73;;
5587;SDS011;2816;49.778;9.986;2023-05-14T03:24:23;6.57;;;5.93;;
5587;SDS011;2816;49.778;9.986;2023-05-14T03:26:50;7.90;;;6.40;;
5587;SDS011;2816;49.778;9.986;2023-05-14T03:29:17;7.97;;;5.90;;
5587;SDS011;2816;49.778;9.986;2023-05-14T03:31:44;7.60;;;6.33;;
5587;SDS011;2816;49.778;9.986;2023-05-14T03:34:11;8.20;;;6.00;;
5587;SDS011;2816;49.778;9.986;2023-05-14T03:36:38;6.93;;;6.23;;
5587;SDS011;2816;49.778;9.986;2023-05-14T03:39:05;8.33;;;6.23;;
5587;SDS011;2816;49.778;9.986;2023-05-14T03:41:34;8.40;;;6.07;;
5587;SDS011;2816;49.778;9.986;2023-05-14T03:44:02;8.00;;;6.63;;
5587;SDS011;2816;49.778;9.986;2023-05-14T03:46:30;7.40;;;6.27;;
5587;SDS011;2816;49.778;9.986;2023-05-14T03:48:57;9.23;;;6.57;;
5587;SDS011;2816;49.778;9.986;2023-05-14T03:51:24;7.80;;;6.30;;
5587;SDS011;2816;49.778;9.986;2023-05-14T03:53:51;8.37;;;5.83;;
5587;SDS011;2816;49.778;9.986;2023-05-14T03:56:17;7.57;;;6.00;;
5587;SDS011;2816;49.778;9.986;2023-05-14T03:58:46;13.33;;;6.57;;
5587;SDS011;2816;49.778;9.986;2023-05-14T04:01:13;12.90;;;6.50;;
5587;SDS011;2816;49.778;9.986;2023-05-14T04:03:40;7.50;;;6.63;;
5587;SDS011;2816;49.778;9.986;2023-05-14T04:06:07;7.13;;;6.40;;
5587;SDS011;2816;49.778;9.986;2023-05-14T04:08:34;9.43;;;6.17;;
5587;SDS011;2816;49.778;9.986;2023-05-14T04:11:00;6.93;;;6.23;;
5587;SDS011;2816;49.778;9.986;2023-05-14T04:13:28;6.70;;;5.70;;
5587;SDS011;2816;49.778;9.986;2023-05-14T04:15:56;7.37;;;6.60;;
5587;SDS011;2816;49.778;9.986;2023-05-14T04:18:23;6.67;;;6.07;;
5587;SDS011;2816;49.778;9.986;2023-05-14T04:20:50;7.40;;;6.70;;
5587;SDS011;2816;49.778;9.986;2023-05-14T04:23:17;6.83;;;6.13;;
5587;SDS011;2816;49.778;9.986;2023-05-14T04:25:44;7.97;;;6.30;;
5587;SDS011;2816;49.778;9.986;2023-05-14T04:28:11;7.13;;;6.30;;
5587;SDS011;2816;49.778;9.986;2023-05-14T04:30:38;6.30;;;5.70;;
5587;SDS011;2816;49.778;9.986;2023-05-14T04:33:06;7.17;;;6.10;;
5587;SDS011;2816;49.778;9.986;2023-05-14T04:35:33;8.33;;;6.97;;
5587;SDS011;2816;49.778;9.986;2023-05-14T04:38:00;8.07;;;6.70;;
5587;SDS011;2816;49.778;9.986;2023-05-14T04:40:27;7.40;;;6.27;;
5587;SDS011;2816;49.778;9.986;2023-05-14T04:42:55;7.07;;;5.40;;
5587;SDS011;2816;49.778;9.986;2023-05-14T04:45:22;6.40;;;5.80;;
5587;SDS011;2816;49.778;9.986;2023-05-14T04:47:50;6.50;;;5.90;;
5587;SDS011;2816;49.778;9.986;2023-05-14T04:50:19;6.50;;;5.90;;
5587;SDS011;2816;49.778;9.986;2023-05-14T04:52:46;6.37;;;5.77;;
5587;SDS011;2816;49.778;9.986;2023-05-14T04:55:13;6.60;;;6.00;;
5587;SDS011;2816;49.778;9.986;2023-05-14T04:57:40;7.77;;;6.13;;
5587;SDS011;2816;49.778;9.986;2023-05-14T05:00:08;7.10;;;6.40;;
5587;SDS011;2816;49.778;9.986;2023-05-14T05:02:36;5.83;;;5.20;;
5587;SDS011;2816;49.778;9.986;2023-05-14T05:05:03;6.17;;;5.67;;
5587;SDS011;2816;49.778;9.986;2023-05-14T05:07:31;6.50;;;5.90;;
5587;SDS011;2816;49.778;9.986;2023-05-14T05:09:58;7.30;;;6.17;;
5587;SDS011;2816;49.778;9.986;2023-05-14T05:12:25;6.43;;;5.37;;
5587;SDS011;2816;49.778;9.986;2023-05-14T05:14:54;7.70;;;6.10;;
5587;SDS011;2816;49.778;9.986;2023-05-14T05:17:21;7.20;;;6.07;;
5587;SDS011;2816;49.778;9.986;2023-05-14T05:19:48;6.93;;;6.00;;
5587;SDS011;2816;49.778;9.986;2023-05-14T05:22:15;7.70;;;6.40;;
5587;SDS011;2816;49.778;9.986;2023-05-14T05:24:43;6.07;;;5.47;;
5587;SDS011;2816;49.778;9.986;2023-05-14T05:27:10;9.13;;;6.00;;
5587;SDS011;2816;49.778;9.986;2023-05-14T05:29:37;6.10;;;5.57;;
5587;SDS011;2816;49.778;9.986;2023-05-14T05:32:04;5.83;;;5.10;;
5587;SDS011;2816;49.778;9.986;2023-05-14T05:34:32;8.23;;;6.60;;
5587;SDS011;2816;49.778;9.986;2023-05-14T05:36:59;6.07;;;5.47;;
5587;SDS011;2816;49.778;9.986;2023-05-14T05:39:26;6.90;;;6.23;;
5587;SDS011;2816;49.778;9.986;2023-05-14T05:42:00;6.30;;;5.70;;
5587;SDS011;2816;49.778;9.986;2023-05-14T05:44:27;8.80;;;5.40;;
5587;SDS011;2816;49.778;9.986;2023-05-14T05:46:55;6.40;;;5.70;;
5587;SDS011;2816;49.778;9.986;2023-05-14T05:49:22;6.20;;;5.60;;
5587;SDS011;2816;49.778;9.986;2023-05-14T05:51:49;6.47;;;5.33;;
5587;SDS011;2816;49.778;9.986;2023-05-14T05:54:16;8.20;;;6.03;;
5587;SDS011;2816;49.778;9.986;2023-05-14T05:56:43;5.90;;;5.40;;
5587;SDS011;2816;49.778;9.986;2023-05-14T05:59:11;5.77;;;5.23;;
5587;SDS011;2816;49.778;9.986;2023-05-14T06:01:38;5.83;;;5.33;;
5587;SDS011;2816;49.778;9.986;2023-05-14T06:04:07;5.90;;;5.40;;
5587;SDS011;2816;49.778;9.986;2023-05-14T06:06:34;6.10;;;5.50;;
5587;SDS011;2816;49.778;9.986;2023-05-14T06:09:01;6.10;;;5.50;;
5587;SDS011;2816;49.778;9.986;2023-05-14T06:11:28;9.77;;;5.77;;
5587;SDS011;2816;49.778;9.986;2023-05-14T06:13:55;5.57;;;5.07;;
5587;SDS011;2816;49.778;9.986;2023-05-14T06:16:23;6.10;;;5.40;;
5587;SDS011;2816;49.778;9.986;2023-05-14T06:18:50;5.40;;;4.90;;
5587;SDS011;2816;49.778;9.986;2023-05-14T06:21:18;8.50;;;5.60;;
5587;SDS011;2816;49.778;9.986;2023-05-14T06:23:45;5.77;;;4.90;;
5587;SDS011;2816;49.778;9.986;2023-05-14T06:26:12;10.07;;;6.13;;
5587;SDS011;2816;49.778;9.986;2023-05-14T06:28:39;5.67;;;4.93;;
5587;SDS011;2816;49.778;9.986;2023-05-14T06:31:06;6.27;;;5.23;;
5587;SDS011;2816;49.778;9.986;2023-05-14T06:33:34;6.00;;;5.40;;
5587;SDS011;2816;49.778;9.986;2023-05-14T06:36:02;5.67;;;5.07;;
5587;SDS011;2816;49.778;9.986;2023-05-14T06:38:30;6.47;;;5.17;;
5587;SDS011;2816;49.778;9.986;2023-05-14T06:40:57;5.70;;;5.20;;
5587;SDS011;2816;49.778;9.986;2023-05-14T06:43:24;5.10;;;4.63;;
5587;SDS011;2816;49.778;9.986;2023-05-14T06:45:51;5.37;;;4.87;;
5587;SDS011;2816;49.778;9.986;2023-05-14T06:48:18;7.10;;;5.57;;
5587;SDS011;2816;49.778;9.986;2023-05-14T06:50:47;4.73;;;4.33;;
5587;SDS011;2816;49.778;9.986;2023-05-14T06:53:15;5.50;;;5.00;;
5587;SDS011;2816;49.778;9.986;2023-05-14T06:55:42;5.00;;;4.60;;
5587;SDS011;2816;49.778;9.986;2023-05-14T06:58:09;6.30;;;4.53;;
5587;SDS011;2816;49.778;9.986;2023-05-14T07:00:35;5.83;;;4.70;;
5587;SDS011;2816;49.778;9.986;2023-05-14T07:03:02;6.90;;;5.23;;
5587;SDS011;2816;49.778;9.986;2023-05-14T07:05:30;5.87;;;5.27;;
5587;SDS011;2816;49.778;9.986;2023-05-14T07:07:58;6.57;;;4.83;;
5587;SDS011;2816;49.778;9.986;2023-05-14T07:10:25;6.23;;;5.63;;
5587;SDS011;2816;49.778;9.986;2023-05-14T07:12:52;18.73;;;6.73;;
5587;SDS011;2816;49.778;9.986;2023-05-14T07:15:19;5.70;;;5.10;;
5587;SDS011;2816;49.778;9.986;2023-05-14T07:17:45;6.67;;;5.43;;
5587;SDS011;2816;49.778;9.986;2023-05-14T07:20:12;5.50;;;5.00;;
5587;SDS011;2816;49.778;9.986;2023-05-14T07:22:39;7.93;;;5.87;;
5587;SDS011;2816;49.778;9.986;2023-05-14T07:25:08;7.90;;;6.27;;
5587;SDS011;2816;49.778;9.986;2023-05-14T07:27:35;5.93;;;5.33;;
5587;SDS011;2816;49.778;9.986;2023-05-14T07:30:02;6.67;;;6.00;;
5587;SDS011;2816;49.778;9.986;2023-05-14T07:32:29;6.37;;;5.50;;
5587;SDS011;2816;49.778;9.986;2023-05-14T07:34:56;5.40;;;4.90;;
5587;SDS011;2816;49.778;9.986;2023-05-14T07:37:23;9.63;;;6.00;;
5587;SDS011;2816;49.778;9.986;2023-05-14T07:39:51;5.87;;;5.37;;
5587;SDS011;2816;49.778;9.986;2023-05-14T07:42:19;7.43;;;6.10;;
5587;SDS011;2816;49.778;9.986;2023-05-14T07:44:46;7.17;;;6.10;;
5587;SDS011;2816;49.778;9.986;2023-05-14T07:47:13;6.73;;;5.53;;
5587;SDS011;2816;49.778;9.986;2023-05-14T07:49:40;6.63;;;5.77;;
5587;SDS011;2816;49.778;9.986;2023-05-14T07:52:07;6.43;;;5.73;;
5587;SDS011;2816;49.778;9.986;2023-05-14T07:54:34;6.83;;;5.13;;
5587;SDS011;2816;49.778;9.986;2023-05-14T07:57:00;6.70;;;5.90;;
5587;SDS011;2816;49.778;9.986;2023-05-14T07:59:29;5.57;;;4.80;;
5587;SDS011;2816;49.778;9.986;2023-05-14T08:01:56;6.20;;;5.47;;
5587;SDS011;2816;49.778;9.986;2023-05-14T08:04:23;7.17;;;5.53;;
5587;SDS011;2816;49.778;9.986;2023-05-14T08:06:50;6.10;;;5.40;;
5587;SDS011;2816;49.778;9.986;2023-05-14T08:09:17;6.40;;;5.30;;
5587;SDS011;2816;49.778;9.986;2023-05-14T08:11:44;9.70;;;6.03;;
5587;SDS011;2816;49.778;9.986;2023-05-14T08:14:11;8.40;;;5.33;;
5587;SDS011;2816;49.778;9.986;2023-05-14T08:16:39;6.50;;;5.70;;
5587;SDS011;2816;49.778;9.986;2023-05-14T08:19:06;6.57;;;5.20;;
5587;SDS011;2816;49.778;9.986;2023-05-14T08:21:33;6.23;;;5.63;;
5587;SDS011;2816;49.778;9.986;2023-05-14T08:24:00;6.20;;;5.60;;
5587;SDS011;2816;49.778;9.986;2023-05-14T08:26:27;8.03;;;5.70;;
5587;SDS011;2816;49.778;9.986;2023-05-14T08:28:54;5.23;;;4.73;;
5587;SDS011;2816;49.778;9.986;2023-05-14T08:31:21;6.53;;;5.13;;
5587;SDS011;2816;49.778;9.986;2023-05-14T08:33:49;6.37;;;5.17;;
5587;SDS011;2816;49.778;9.986;2023-05-14T08:36:16;5.20;;;4.70;;
5587;SDS011;2816;49.778;9.986;2023-05-14T08:38:43;5.90;;;5.40;;
5587;SDS011;2816;49.778;9.986;2023-05-14T08:41:10;5.97;;;5.37;;
5587;SDS011;2816;49.778;9.986;2023-05-14T08:43:42;5.13;;;4.63;;
5587;SDS011;2816;49.778;9.986;2023-05-14T08:46:13;6.40;;;4.90;;
5587;SDS011;2816;49.778;9.986;2023-05-14T08:48:42;5.43;;;4.80;;
5587;SDS011;2816;49.778;9.986;2023-05-14T08:51:20;5.40;;;4.90;;
5587;SDS011;2816;49.778;9.986;2023-05-14T08:53:47;5.03;;;4.50;;
5587;SDS011;2816;49.778;9.986;2023-05-14T08:56:15;5.53;;;4.83;;
5587;SDS011;2816;49.778;9.986;2023-05-14T08:58:44;5.73;;;5.23;;
5587;SDS011;2816;49.778;9.986;2023-05-14T09:01:10;5.93;;;5.07;;
5587;SDS011;2816;49.778;9.986;2023-05-14T09:03:37;8.97;;;5.40;;
5587;SDS011;2816;49.778;9.986;2023-05-14T09:06:05;5.67;;;4.70;;
5587;SDS011;2816;49.778;9.986;2023-05-14T09:08:35;6.00;;;5.00;;
5587;SDS011;2816;49.778;9.986;2023-05-14T09:11:02;6.40;;;5.57;;
5587;SDS011;2816;49.778;9.986;2023-05-14T09:13:29;11.70;;;5.23;;
5587;SDS011;2816;49.778;9.986;2023-05-14T09:15:56;5.97;;;5.10;;
5587;SDS011;2816;49.778;9.986;2023-05-14T09:18:24;7.67;;;5.23;;
5587;SDS011;2816;49.778;9.986;2023-05-14T09:20:51;8.47;;;4.87;;
5587;SDS011;2816;49.778;9.986;2023-05-14T09:23:18;6.07;;;5.10;;
5587;SDS011;2816;49.778;9.986;2023-05-14T09:25:47;7.23;;;4.80;;
5587;SDS011;2816;49.778;9.986;2023-05-14T09:28:16;5.23;;;4.73;;
5587;SDS011;2816;49.778;9.986;2023-05-14T09:30:45;5.57;;;5.07;;
5587;SDS011;2816;49.778;9.986;2023-05-14T09:33:24;6.90;;;5.43;;
5587;SDS011;2816;49.778;9.986;2023-05-14T09:35:54;5.57;;;4.53;;
5587;SDS011;2816;49.778;9.986;2023-05-14T09:38:26;5.57;;;4.57;;
5587;SDS011;2816;49.778;9.986;2023-05-14T09:40:56;5.20;;;4.70;;
5587;SDS011;2816;49.778;9.986;2023-05-14T09:43:23;5.80;;;5.20;;
5587;SDS011;2816;49.778;9.986;2023-05-14T09:45:50;6.83;;;4.93;;
5587;SDS011;2816;49.778;9.986;2023-05-14T09:48:17;4.87;;;4.37;;
5587;SDS011;2816;49.778;9.986;2023-05-14T09:50:46;5.00;;;4.50;;
5587;SDS011;2816;49.778;9.986;2023-05-14T09:53:13;5.23;;;4.73;;
5587;SDS011;2816;49.778;9.986;2023-05-14T09:55:41;6.63;;;4.70;;
5587;SDS011;2816;49.778;9.986;2023-05-14T09:58:10;4.93;;;4.53;;
5587;SDS011;2816;49.778;9.986;2023-05-14T10:00:38;5.67;;;5.10;;
5587;SDS011;2816;49.778;9.986;2023-05-14T10:03:08;5.03;;;4.53;;
5587;SDS011;2816;49.778;9.986;2023-05-14T10:05:39;4.63;;;4.13;;
5587;SDS011;2816;49.778;9.986;2023-05-14T10:08:08;5.00;;;4.23;;
5587;SDS011;2816;49.778;9.986;2023-05-14T10:10:38;5.20;;;3.80;;
5587;SDS011;2816;49.778;9.986;2023-05-14T10:13:06;4.97;;;4.47;;
5587;SDS011;2816;49.778;9.986;2023-05-14T10:15:41;4.27;;;3.87;;
5587;SDS011;2816;49.778;9.986;2023-05-14T10:18:15;5.43;;;4.20;;
5587;SDS011;2816;49.778;9.986;2023-05-14T10:20:44;4.30;;;3.90;;
5587;SDS011;2816;49.778;9.986;2023-05-14T10:23:17;4.60;;;4.20;;
5587;SDS011;2816;49.778;9.986;2023-05-14T10:25:44;5.37;;;4.87;;
5587;SDS011;2816;49.778;9.986;2023-05-14T10:28:13;8.03;;;4.60;;
5587;SDS011;2816;49.778;9.986;2023-05-14T10:30:42;8.43;;;4.67;;
5587;SDS011;2816;49.778;9.986;2023-05-14T10:33:11;4.87;;;4.43;;
5587;SDS011;2816;49.778;9.986;2023-05-14T10:38:34;5.30;;;4.77;;
5587;SDS011;2816;49.778;9.986;2023-05-14T10:41:02;5.40;;;4.50;;
5587;SDS011;2816;49.778;9.986;2023-05-14T10:43:35;4.60;;;4.13;;
5587;SDS011;2816;49.778;9.986;2023-05-14T10:46:03;5.60;;;4.53;;
5587;SDS011;2816;49.778;9.986;2023-05-14T10:48:31;5.63;;;4.00;;
5587;SDS011;2816;49.778;9.986;2023-05-14T10:50:59;4.80;;;4.27;;
5587;SDS011;2816;49.778;9.986;2023-05-14T10:53:31;4.83;;;4.20;;
5587;SDS011;2816;49.778;9.986;2023-05-14T10:56:01;4.57;;;3.80;;
5587;SDS011;2816;49.778;9.986;2023-05-14T10:58:31;4.87;;;4.43;;
5587;SDS011;2816;49.778;9.986;2023-05-14T11:01:01;6.20;;;4.70;;
5587;SDS011;2816;49.778;9.986;2023-05-14T11:03:30;4.67;;;4.27;;
5587;SDS011;2816;49.778;9.986;2023-05-14T11:05:58;5.33;;;4.47;;
5587;SDS011;2816;49.778;9.986;2023-05-14T11:08:28;5.53;;;4.70;;
5587;SDS011;2816;49.778;9.986;2023-05-14T11:10:57;6.30;;;4.60;;
5587;SDS011;2816;49.778;9.986;2023-05-14T11:13:25;4.87;;;4.30;;
5587;SDS011;2816;49.778;9.986;2023-05-14T11:15:54;6.50;;;3.93;;
5587;SDS011;2816;49.778;9.986;2023-05-14T11:18:27;4.67;;;4.13;;
5587;SDS011;2816;49.778;9.986;2023-05-14T11:20:56;4.60;;;4.20;;
5587;SDS011;2816;49.778;9.986;2023-05-14T11:23:25;4.47;;;4.07;;
5587;SDS011;2816;49.778;9.986;2023-05-14T11:25:52;5.33;;;4.10;;
5587;SDS011;2816;49.778;9.986;2023-05-14T11:28:19;5.20;;;4.70;;
5587;SDS011;2816;49.778;9.986;2023-05-14T11:30:47;6.70;;;4.20;;
5587;SDS011;2816;49.778;9.986;2023-05-14T11:33:16;4.60;;;4.17;;
5587;SDS011;2816;49.778;9.986;2023-05-14T11:35:43;4.70;;;4.00;;
5587;SDS011;2816;49.778;9.986;2023-05-14T11:38:14;5.60;;;4.43;;
5587;SDS011;2816;49.778;9.986;2023-05-14T11:40:42;4.23;;;3.83;;
5587;SDS011;2816;49.778;9.986;2023-05-14T11:43:16;4.83;;;3.77;;
5587;SDS011;2816;49.778;9.986;2023-05-14T11:45:43;5.10;;;4.30;;
5587;SDS011;2816;49.778;9.986;2023-05-14T11:48:16;3.97;;;3.67;;
5587;SDS011;2816;49.778;9.986;2023-05-14T11:50:43;4.60;;;4.10;;
5587;SDS011;2816;49.778;9.986;2023-05-14T11:53:15;4.17;;;3.73;;
5587;SDS011;2816;49.778;9.986;2023-05-14T11:55:43;7.63;;;4.03;;
5587;SDS011;2816;49.778;9.986;2023-05-14T11:58:10;4.97;;;4.10;;
5587;SDS011;2816;49.778;9.986;2023-05-14T12:00:38;4.20;;;3.80;;
5587;SDS011;2816;49.778;9.986;2023-05-14T12:03:05;9.33;;;4.47;;
5587;SDS011;2816;49.778;9.986;2023-05-14T12:05:37;4.70;;;3.93;;
5587;SDS011;2816;49.778;9.986;2023-05-14T12:08:18;7.20;;;3.50;;
5587;SDS011;2816;49.778;9.986;2023-05-14T12:10:45;9.90;;;4.10;;
5587;SDS011;2816;49.778;9.986;2023-05-14T12:13:13;4.33;;;3.70;;
5587;SDS011;2816;49.778;9.986;2023-05-14T12:15:43;4.60;;;3.57;;
5587;SDS011;2816;49.778;9.986;2023-05-14T12:18:11;4.63;;;3.60;;
5587;SDS011;2816;49.778;9.986;2023-05-14T12:20:39;4.67;;;3.80;;
5587;SDS011;2816;49.778;9.986;2023-05-14T12:23:12;4.00;;;3.60;;
5587;SDS011;2816;49.778;9.986;2023-05-14T12:25:48;3.80;;;3.37;;
5587;SDS011;2816;49.778;9.986;2023-05-14T12:28:15;4.70;;;3.30;;
5587;SDS011;2816;49.778;9.986;2023-05-14T12:30:43;6.33;;;4.10;;
5587;SDS011;2816;49.778;9.986;2023-05-14T12:33:11;3.90;;;3.60;;
5587;SDS011;2816;49.778;9.986;2023-05-14T12:35:39;3.50;;;3.20;;
5587;SDS011;2816;49.778;9.986;2023-05-14T12:38:07;3.63;;;3.33;;
5587;SDS011;2816;49.778;9.986;2023-05-14T12:40:34;3.80;;;3.50;;
5587;SDS011;2816;49.778;9.986;2023-05-14T12:43:01;3.30;;;3.03;;
5587;SDS011;2816;49.778;9.986;2023-05-14T12:45:28;3.83;;;3.53;;
5587;SDS011;2816;49.778;9.986;2023-05-14T12:47:55;4.50;;;3.73;;
5587;SDS011;2816;49.778;9.986;2023-05-14T12:50:23;3.20;;;2.90;;
5587;SDS011;2816;49.778;9.986;2023-05-14T12:52:51;3.40;;;3.10;;
5587;SDS011;2816;49.778;9.986;2023-05-14T12:55:18;4.30;;;3.90;;
5587;SDS011;2816;49.778;9.986;2023-05-14T12:57:45;3.80;;;3.47;;
5587;SDS011;2816;49.778;9.986;2023-05-14T13:00:12;4.73;;;3.93;;
5587;SDS011;2816;49.778;9.986;2023-05-14T13:02:40;4.00;;;3.70;;
5587;SDS011;2816;49.778;9.986;2023-05-14T13:05:07;4.87;;;3.90;;
5587;SDS011;2816;49.778;9.986;2023-05-14T13:07:34;4.60;;;3.50;;
5587;SDS011;2816;49.778;9.986;2023-05-14T13:10:03;4.17;;;3.43;;
5587;SDS011;2816;49.778;9.986;2023-05-14T13:12:31;4.00;;;3.60;;
5587;SDS011;2816;49.778;9.986;2023-05-14T13:14:58;4.40;;;4.00;;
5587;SDS011;2816;49.778;9.986;2023-05-14T13:17:26;3.70;;;3.40;;
5587;SDS011;2816;49.778;9.986;2023-05-14T13:19:53;3.60;;;3.30;;
5587;SDS011;2816;49.778;9.986;2023-05-14T13:22:20;4.53;;;3.27;;
5587;SDS011;2816;49.778;9.986;2023-05-14T13:24:46;3.53;;;3.23;;
5587;SDS011;2816;49.778;9.986;2023-05-14T13:27:15;3.60;;;3.30;;
5587;SDS011;2816;49.778;9.986;2023-05-14T13:29:42;3.87;;;3.47;;
5587;SDS011;2816;49.778;9.986;2023-05-14T13:32:09;3.80;;;3.37;;
5587;SDS011;2816;49.778;9.986;2023-05-14T13:34:35;3.73;;;3.43;;
5587;SDS011;2816;49.778;9.986;2023-05-14T13:37:04;5.40;;;3.67;;
5587;SDS011;2816;49.778;9.986;2023-05-14T13:39:31;4.23;;;3.27;;
5587;SDS011;2816;49.778;9.986;2023-05-14T13:41:59;3.60;;;3.30;;
5587;SDS011;2816;49.778;9.986;2023-05-14T13:44:27;3.37;;;3.07;;
5587;SDS011;2816;49.778;9.986;2023-05-14T13:46:54;4.50;;;3.30;;
5587;SDS011;2816;49.778;9.986;2023-05-14T13:49:21;3.43;;;3.10;;
5587;SDS011;2816;49.778;9.986;2023-05-14T13:51:49;3.50;;;3.20;;
5587;SDS011;2816;49.778;9.986;2023-05-14T13:54:16;3.13;;;2.93;;
5587;SDS011;2816;49.778;9.986;2023-05-14T13:56:43;3.23;;;2.90;;
5587;SDS011;2816;49.778;9.986;2023-05-14T13:59:10;4.00;;;3.20;;
5587;SDS011;2816;49.778;9.986;2023-05-14T14:01:38;3.43;;;3.00;;
5587;SDS011;2816;49.778;9.986;2023-05-14T14:04:08;3.30;;;3.10;;
5587;SDS011;2816;49.778;9.986;2023-05-14T14:06:35;3.40;;;3.10;;
5587;SDS011;2816;49.778;9.986;2023-05-14T14:09:02;3.33;;;3.00;;
5587;SDS011;2816;49.778;9.986;2023-05-14T14:11:29;3.87;;;3.50;;
5587;SDS011;2816;49.778;9.986;2023-05-14T14:13:56;3.60;;;3.30;;
5587;SDS011;2816;49.778;9.986;2023-05-14T14:16:24;3.20;;;3.00;;
5587;SDS011;2816;49.778;9.986;2023-05-14T14:18:52;4.53;;;3.57;;
5587;SDS011;2816;49.778;9.986;2023-05-14T14:21:19;3.67;;;3.37;;
5587;SDS011;2816;49.778;9.986;2023-05-14T14:23:46;3.83;;;3.50;;
5587;SDS011;2816;49.778;9.986;2023-05-14T14:26:13;4.20;;;2.97;;
5587;SDS011;2816;49.778;9.986;2023-05-14T14:28:41;5.50;;;4.10;;
5587;SDS011;2816;49.778;9.986;2023-05-14T14:31:07;4.03;;;3.20;;
5587;SDS011;2816;49.778;9.986;2023-05-14T14:33:35;3.27;;;2.97;;
5587;SDS011;2816;49.778;9.986;2023-05-14T14:36:03;3.37;;;3.07;;
5587;SDS011;2816;49.778;9.986;2023-05-14T14:38:31;3.27;;;2.97;;
5587;SDS011;2816;49.778;9.986;2023-05-14T14:40:58;4.70;;;3.33;;
5587;SDS011;2816;49.778;9.986;2023-05-14T14:43:27;3.20;;;2.90;;
5587;SDS011;2816;49.778;9.986;2023-05-14T14:45:54;4.60;;;3.53;;
5587;SDS011;2816;49.778;9.986;2023-05-14T14:48:22;5.73;;;3.50;;
5587;SDS011;2816;49.778;9.986;2023-05-14T14:50:50;3.03;;;2.83;;
5587;SDS011;2816;49.778;9.986;2023-05-14T14:53:19;3.70;;;3.40;;
5587;SDS011;2816;49.778;9.986;2023-05-14T14:55:47;3.90;;;3.50;;
5587;SDS011;2816;49.778;9.986;2023-05-14T14:58:14;3.77;;;2.87;;
5587;SDS011;2816;49.778;9.986;2023-05-14T15:00:41;4.67;;;3.00;;
5587;SDS011;2816;49.778;9.986;2023-05-14T15:03:09;4.23;;;3.33;;
5587;SDS011;2816;49.778;9.986;2023-05-14T15:05:38;2.97;;;2.77;;
5587;SDS011;2816;49.778;9.986;2023-05-14T15:08:05;3.40;;;3.10;;
5587;SDS011;2816;49.778;9.986;2023-05-14T15:10:34;4.00;;;3.23;;
5587;SDS011;2816;49.778;9.986;2023-05-14T15:13:02;3.30;;;3.00;;
5587;SDS011;2816;49.778;9.986;2023-05-14T15:15:30;3.73;;;3.40;;
5587;SDS011;2816;49.778;9.986;2023-05-14T15:17:58;4.93;;;3.57;;
5587;SDS011;2816;49.778;9.986;2023-05-14T15:20:24;3.57;;;3.27;;
5587;SDS011;2816;49.778;9.986;2023-05-14T15:22:52;5.70;;;3.47;;